sensor_id;sensor_type;location;lat;lon;timestamp;temperature;humidity
70695;DHT22;58269;52.246;21.104;2022-09-01T00:00:52;16.39;56.98
70695;DHT22;58269;52.246;21.104;2022-09-01T00:02:54;16.37;56.98
70695;DHT22;58269;52.246;21.104;2022-09-01T00:04:56;16.33;57.23
70695;DHT22;58269;52.246;21.104;2022-09-01T00:06:58;16.29;57.11
70695;DHT22;58269;52.246;21.104;2022-09-01T00:09:04;16.29;57.22
70695;DHT22;58269;52.246;21.104;2022-09-01T00:11:04;16.23;57.22
70695;DHT22;58269;52.246;21.104;2022-09-01T00:13:05;16.20;57.28
70695;DHT22;58269;52.246;21.104;2022-09-01T00:15:09;16.17;57.40
70695;DHT22;58269;52.246;21.104;2022-09-01T00:17:11;16.17;57.49
70695;DHT22;58269;52.246;21.104;2022-09-01T00:19:12;16.12;57.46
70695;DHT22;58269;52.246;21.104;2022-09-01T00:21:13;16.08;57.52
70695;DHT22;58269;52.246;21.104;2022-09-01T00:23:14;16.06;57.63
70695;DHT22;58269;52.246;21.104;2022-09-01T00:25:16;16.05;57.70
70695;DHT22;58269;52.246;21.104;2022-09-01T00:27:18;16.00;57.80
70695;DHT22;58269;52.246;21.104;2022-09-01T00:29:20;15.99;57.85
70695;DHT22;58269;52.246;21.104;2022-09-01T00:31:22;15.95;57.91
70695;DHT22;58269;52.246;21.104;2022-09-01T00:33:23;15.95;57.96
70695;DHT22;58269;52.246;21.104;2022-09-01T00:35:24;15.93;57.96
70695;DHT22;58269;52.246;21.104;2022-09-01T00:37:25;15.92;58.11
70695;DHT22;58269;52.246;21.104;2022-09-01T00:39:26;15.89;58.15
70695;DHT22;58269;52.246;21.104;2022-09-01T00:41:29;15.86;58.16
70695;DHT22;58269;52.246;21.104;2022-09-01T00:45:44;15.84;58.45
70695;DHT22;58269;52.246;21.104;2022-09-01T00:47:45;15.78;58.42
70695;DHT22;58269;52.246;21.104;2022-09-01T00:49:47;15.78;58.51
70695;DHT22;58269;52.246;21.104;2022-09-01T00:51:52;15.74;58.58
70695;DHT22;58269;52.246;21.104;2022-09-01T00:53:53;15.69;58.63
70695;DHT22;58269;52.246;21.104;2022-09-01T00:55:55;15.69;58.77
70695;DHT22;58269;52.246;21.104;2022-09-01T00:57:57;15.65;58.84
70695;DHT22;58269;52.246;21.104;2022-09-01T01:00:09;15.62;58.93
70695;DHT22;58269;52.246;21.104;2022-09-01T01:02:11;15.60;58.96
70695;DHT22;58269;52.246;21.104;2022-09-01T01:04:12;15.54;59.01
70695;DHT22;58269;52.246;21.104;2022-09-01T01:06:17;15.51;59.14
70695;DHT22;58269;52.246;21.104;2022-09-01T01:08:24;15.50;59.37
70695;DHT22;58269;52.246;21.104;2022-09-01T01:10:35;15.45;59.32
70695;DHT22;58269;52.246;21.104;2022-09-01T01:12:38;15.44;59.33
70695;DHT22;58269;52.246;21.104;2022-09-01T01:14:40;15.37;59.54
70695;DHT22;58269;52.246;21.104;2022-09-01T01:16:44;15.35;59.55
70695;DHT22;58269;52.246;21.104;2022-09-01T01:18:46;15.33;59.66
70695;DHT22;58269;52.246;21.104;2022-09-01T01:20:47;15.29;59.69
70695;DHT22;58269;52.246;21.104;2022-09-01T01:23:16;15.27;59.75
70695;DHT22;58269;52.246;21.104;2022-09-01T01:25:19;15.24;59.84
70695;DHT22;58269;52.246;21.104;2022-09-01T01:27:22;15.20;59.85
70695;DHT22;58269;52.246;21.104;2022-09-01T01:29:30;15.20;59.94
70695;DHT22;58269;52.246;21.104;2022-09-01T01:31:29;15.18;59.97
70695;DHT22;58269;52.246;21.104;2022-09-01T01:33:35;15.18;60.07
70695;DHT22;58269;52.246;21.104;2022-09-01T01:35:38;15.15;60.05
70695;DHT22;58269;52.246;21.104;2022-09-01T01:37:43;15.13;60.10
70695;DHT22;58269;52.246;21.104;2022-09-01T01:39:46;15.11;60.19
70695;DHT22;58269;52.246;21.104;2022-09-01T01:41:49;15.07;60.30
70695;DHT22;58269;52.246;21.104;2022-09-01T01:43:51;15.07;60.34
70695;DHT22;58269;52.246;21.104;2022-09-01T01:45:55;15.06;60.38
70695;DHT22;58269;52.246;21.104;2022-09-01T01:48:00;15.06;60.38
70695;DHT22;58269;52.246;21.104;2022-09-01T01:50:05;15.03;60.45
70695;DHT22;58269;52.246;21.104;2022-09-01T01:52:11;15.03;60.46
70695;DHT22;58269;52.246;21.104;2022-09-01T01:54:15;14.99;60.55
70695;DHT22;58269;52.246;21.104;2022-09-01T01:56:19;14.99;60.62
70695;DHT22;58269;52.246;21.104;2022-09-01T01:58:22;14.94;60.72
70695;DHT22;58269;52.246;21.104;2022-09-01T02:00:28;14.89;60.77
70695;DHT22;58269;52.246;21.104;2022-09-01T02:02:29;14.89;60.85
70695;DHT22;58269;52.246;21.104;2022-09-01T02:04:31;14.89;60.82
70695;DHT22;58269;52.246;21.104;2022-09-01T02:06:37;14.86;60.94
70695;DHT22;58269;52.246;21.104;2022-09-01T02:08:40;14.82;61.02
70695;DHT22;58269;52.246;21.104;2022-09-01T02:10:44;14.82;61.04
70695;DHT22;58269;52.246;21.104;2022-09-01T02:12:45;14.80;61.05
70695;DHT22;58269;52.246;21.104;2022-09-01T02:14:47;14.73;61.02
70695;DHT22;58269;52.246;21.104;2022-09-01T02:16:50;14.73;61.10
70695;DHT22;58269;52.246;21.104;2022-09-01T02:18:52;14.73;61.27
70695;DHT22;58269;52.246;21.104;2022-09-01T02:20:54;14.72;61.29
70695;DHT22;58269;52.246;21.104;2022-09-01T02:22:55;14.69;61.37
70695;DHT22;58269;52.246;21.104;2022-09-01T02:24:56;14.71;61.28
70695;DHT22;58269;52.246;21.104;2022-09-01T02:26:57;14.66;61.39
70695;DHT22;58269;52.246;21.104;2022-09-01T02:29:02;14.66;61.39
70695;DHT22;58269;52.246;21.104;2022-09-01T02:31:04;14.62;61.53
70695;DHT22;58269;52.246;21.104;2022-09-01T02:33:08;14.61;61.45
70695;DHT22;58269;52.246;21.104;2022-09-01T02:35:09;14.59;61.63
70695;DHT22;58269;52.246;21.104;2022-09-01T02:37:11;14.58;61.59
70695;DHT22;58269;52.246;21.104;2022-09-01T02:39:14;14.58;61.62
70695;DHT22;58269;52.246;21.104;2022-09-01T02:41:15;14.53;61.70
70695;DHT22;58269;52.246;21.104;2022-09-01T02:43:19;14.49;61.72
70695;DHT22;58269;52.246;21.104;2022-09-01T02:45:22;14.51;61.78
70695;DHT22;58269;52.246;21.104;2022-09-01T02:47:23;14.49;61.88
70695;DHT22;58269;52.246;21.104;2022-09-01T02:49:25;14.42;61.87
70695;DHT22;58269;52.246;21.104;2022-09-01T02:51:27;14.45;62.04
70695;DHT22;58269;52.246;21.104;2022-09-01T02:53:30;14.41;62.16
70695;DHT22;58269;52.246;21.104;2022-09-01T02:55:33;14.38;62.09
70695;DHT22;58269;52.246;21.104;2022-09-01T02:57:34;14.35;62.10
70695;DHT22;58269;52.246;21.104;2022-09-01T02:59:35;14.32;62.17
70695;DHT22;58269;52.246;21.104;2022-09-01T03:01:37;14.31;62.27
70695;DHT22;58269;52.246;21.104;2022-09-01T03:03:39;14.32;62.22
70695;DHT22;58269;52.246;21.104;2022-09-01T03:05:40;14.28;62.25
70695;DHT22;58269;52.246;21.104;2022-09-01T03:07:43;14.27;62.30
70695;DHT22;58269;52.246;21.104;2022-09-01T03:09:44;14.29;62.79
70695;DHT22;58269;52.246;21.104;2022-09-01T03:11:48;15.21;70.06
70695;DHT22;58269;52.246;21.104;2022-09-01T03:13:50;16.54;70.24
70695;DHT22;58269;52.246;21.104;2022-09-01T03:15:52;17.50;68.64
70695;DHT22;58269;52.246;21.104;2022-09-01T03:17:53;18.12;69.40
70695;DHT22;58269;52.246;21.104;2022-09-01T03:19:55;18.59;65.90
70695;DHT22;58269;52.246;21.104;2022-09-01T03:21:57;18.99;62.72
70695;DHT22;58269;52.246;21.104;2022-09-01T03:24:00;19.30;60.67
70695;DHT22;58269;52.246;21.104;2022-09-01T03:26:03;19.55;58.60
70695;DHT22;58269;52.246;21.104;2022-09-01T03:28:04;19.31;53.21
70695;DHT22;58269;52.246;21.104;2022-09-01T03:30:06;18.62;52.59
70695;DHT22;58269;52.246;21.104;2022-09-01T03:32:08;17.97;52.27
70695;DHT22;58269;52.246;21.104;2022-09-01T03:34:09;17.49;52.34
70695;DHT22;58269;52.246;21.104;2022-09-01T03:36:12;17.05;52.79
70695;DHT22;58269;52.246;21.104;2022-09-01T03:38:15;16.74;53.65
70695;DHT22;58269;52.246;21.104;2022-09-01T03:40:27;16.43;53.47
70695;DHT22;58269;52.246;21.104;2022-09-01T03:42:31;16.19;53.93
70695;DHT22;58269;52.246;21.104;2022-09-01T03:44:32;15.95;54.89
70695;DHT22;58269;52.246;21.104;2022-09-01T03:46:35;15.75;55.50
70695;DHT22;58269;52.246;21.104;2022-09-01T03:48:37;15.54;55.82
70695;DHT22;58269;52.246;21.104;2022-09-01T03:50:41;15.38;55.92
70695;DHT22;58269;52.246;21.104;2022-09-01T03:52:53;15.21;56.73
70695;DHT22;58269;52.246;21.104;2022-09-01T03:54:54;15.04;57.25
70695;DHT22;58269;52.246;21.104;2022-09-01T03:56:55;14.92;57.93
70695;DHT22;58269;52.246;21.104;2022-09-01T03:58:58;14.80;57.92
70695;DHT22;58269;52.246;21.104;2022-09-01T04:01:00;14.69;58.64
70695;DHT22;58269;52.246;21.104;2022-09-01T04:03:04;14.58;58.90
70695;DHT22;58269;52.246;21.104;2022-09-01T04:05:07;14.47;58.90
70695;DHT22;58269;52.246;21.104;2022-09-01T04:07:09;14.36;59.20
70695;DHT22;58269;52.246;21.104;2022-09-01T04:09:10;14.29;59.71
70695;DHT22;58269;52.246;21.104;2022-09-01T04:11:16;14.20;59.62
70695;DHT22;58269;52.246;21.104;2022-09-01T04:13:30;14.14;59.80
70695;DHT22;58269;52.246;21.104;2022-09-01T04:15:28;14.07;59.97
70695;DHT22;58269;52.246;21.104;2022-09-01T04:17:29;14.01;60.35
70695;DHT22;58269;52.246;21.104;2022-09-01T04:19:49;13.96;60.37
70695;DHT22;58269;52.246;21.104;2022-09-01T04:21:51;13.91;60.89
70695;DHT22;58269;52.246;21.104;2022-09-01T04:23:54;13.87;60.77
70695;DHT22;58269;52.246;21.104;2022-09-01T04:26:00;13.86;61.07
70695;DHT22;58269;52.246;21.104;2022-09-01T04:28:04;13.80;60.92
70695;DHT22;58269;52.246;21.104;2022-09-01T04:30:10;13.77;61.19
70695;DHT22;58269;52.246;21.104;2022-09-01T04:32:13;13.73;61.44
70695;DHT22;58269;52.246;21.104;2022-09-01T04:34:17;13.73;61.50
70695;DHT22;58269;52.246;21.104;2022-09-01T04:36:26;13.72;61.38
70695;DHT22;58269;52.246;21.104;2022-09-01T04:38:29;13.72;61.42
70695;DHT22;58269;52.246;21.104;2022-09-01T04:40:30;13.69;61.89
70695;DHT22;58269;52.246;21.104;2022-09-01T04:42:31;13.70;62.04
70695;DHT22;58269;52.246;21.104;2022-09-01T04:44:35;13.64;61.93
70695;DHT22;58269;52.246;21.104;2022-09-01T04:46:40;13.66;62.19
70695;DHT22;58269;52.246;21.104;2022-09-01T04:48:47;13.63;62.22
70695;DHT22;58269;52.246;21.104;2022-09-01T04:50:50;13.66;62.21
70695;DHT22;58269;52.246;21.104;2022-09-01T04:53:01;13.66;62.38
70695;DHT22;58269;52.246;21.104;2022-09-01T04:55:11;13.67;62.40
70695;DHT22;58269;52.246;21.104;2022-09-01T04:57:14;14.20;67.33
70695;DHT22;58269;52.246;21.104;2022-09-01T04:59:18;15.48;69.99
70695;DHT22;58269;52.246;21.104;2022-09-01T05:01:26;16.61;69.37
70695;DHT22;58269;52.246;21.104;2022-09-01T05:03:27;17.40;68.36
70695;DHT22;58269;52.246;21.104;2022-09-01T05:05:37;18.01;67.65
70695;DHT22;58269;52.246;21.104;2022-09-01T05:07:39;18.44;65.74
70695;DHT22;58269;52.246;21.104;2022-09-01T05:09:40;18.83;62.84
70695;DHT22;58269;52.246;21.104;2022-09-01T05:11:46;19.14;60.92
70695;DHT22;58269;52.246;21.104;2022-09-01T05:13:59;19.43;60.41
70695;DHT22;58269;52.246;21.104;2022-09-01T05:16:04;19.68;60.26
70695;DHT22;58269;52.246;21.104;2022-09-01T05:18:06;19.85;58.72
70695;DHT22;58269;52.246;21.104;2022-09-01T05:20:09;19.47;54.93
70695;DHT22;58269;52.246;21.104;2022-09-01T05:22:11;18.69;52.44
70695;DHT22;58269;52.246;21.104;2022-09-01T05:24:17;18.07;51.84
70695;DHT22;58269;52.246;21.104;2022-09-01T05:26:24;17.52;51.71
70695;DHT22;58269;52.246;21.104;2022-09-01T05:28:26;17.09;51.95
70695;DHT22;58269;52.246;21.104;2022-09-01T05:30:29;16.78;51.85
70695;DHT22;58269;52.246;21.104;2022-09-01T05:32:30;16.48;52.05
70695;DHT22;58269;52.246;21.104;2022-09-01T05:34:33;16.23;53.16
70695;DHT22;58269;52.246;21.104;2022-09-01T05:36:37;16.03;53.09
70695;DHT22;58269;52.246;21.104;2022-09-01T05:38:40;15.84;52.90
70695;DHT22;58269;52.246;21.104;2022-09-01T05:40:43;15.65;54.87
70695;DHT22;58269;52.246;21.104;2022-09-01T05:42:44;15.51;55.12
70695;DHT22;58269;52.246;21.104;2022-09-01T05:44:45;15.38;55.40
70695;DHT22;58269;52.246;21.104;2022-09-01T05:46:49;15.30;55.87
70695;DHT22;58269;52.246;21.104;2022-09-01T05:48:52;15.21;56.10
70695;DHT22;58269;52.246;21.104;2022-09-01T05:50:53;15.14;55.26
70695;DHT22;58269;52.246;21.104;2022-09-01T05:52:56;15.06;56.38
70695;DHT22;58269;52.246;21.104;2022-09-01T05:54:57;15.02;56.90
70695;DHT22;58269;52.246;21.104;2022-09-01T05:57:00;14.97;57.21
70695;DHT22;58269;52.246;21.104;2022-09-01T05:59:03;14.92;56.60
70695;DHT22;58269;52.246;21.104;2022-09-01T06:01:04;14.86;56.87
70695;DHT22;58269;52.246;21.104;2022-09-01T06:03:05;14.84;57.34
70695;DHT22;58269;52.246;21.104;2022-09-01T06:05:10;14.83;57.62
70695;DHT22;58269;52.246;21.104;2022-09-01T06:07:15;14.80;57.82
70695;DHT22;58269;52.246;21.104;2022-09-01T06:09:19;14.80;58.98
70695;DHT22;58269;52.246;21.104;2022-09-01T06:11:22;14.79;59.77
70695;DHT22;58269;52.246;21.104;2022-09-01T06:13:25;14.80;59.51
70695;DHT22;58269;52.246;21.104;2022-09-01T06:15:29;14.82;59.17
70695;DHT22;58269;52.246;21.104;2022-09-01T06:17:31;14.83;59.25
70695;DHT22;58269;52.246;21.104;2022-09-01T06:19:34;14.87;59.02
70695;DHT22;58269;52.246;21.104;2022-09-01T06:21:37;14.87;59.31
70695;DHT22;58269;52.246;21.104;2022-09-01T06:23:40;14.92;59.45
70695;DHT22;58269;52.246;21.104;2022-09-01T06:25:43;14.94;59.81
70695;DHT22;58269;52.246;21.104;2022-09-01T06:27:47;14.96;59.33
70695;DHT22;58269;52.246;21.104;2022-09-01T06:29:49;15.00;59.67
70695;DHT22;58269;52.246;21.104;2022-09-01T06:31:52;15.06;59.67
70695;DHT22;58269;52.246;21.104;2022-09-01T06:33:54;15.07;59.54
70695;DHT22;58269;52.246;21.104;2022-09-01T06:35:55;15.10;59.83
70695;DHT22;58269;52.246;21.104;2022-09-01T06:37:57;15.17;59.84
70695;DHT22;58269;52.246;21.104;2022-09-01T06:40:14;15.23;59.70
70695;DHT22;58269;52.246;21.104;2022-09-01T06:42:18;15.27;60.06
70695;DHT22;58269;52.246;21.104;2022-09-01T06:44:24;15.31;60.12
70695;DHT22;58269;52.246;21.104;2022-09-01T06:46:30;15.37;60.08
70695;DHT22;58269;52.246;21.104;2022-09-01T06:48:33;15.44;60.05
70695;DHT22;58269;52.246;21.104;2022-09-01T06:50:38;15.48;59.70
70695;DHT22;58269;52.246;21.104;2022-09-01T06:52:41;15.54;60.02
70695;DHT22;58269;52.246;21.104;2022-09-01T06:54:42;15.61;60.61
70695;DHT22;58269;52.246;21.104;2022-09-01T06:56:44;15.68;60.57
70695;DHT22;58269;52.246;21.104;2022-09-01T06:58:45;15.74;60.08
70695;DHT22;58269;52.246;21.104;2022-09-01T07:00:48;15.81;59.81
70695;DHT22;58269;52.246;21.104;2022-09-01T07:02:54;15.89;60.05
70695;DHT22;58269;52.246;21.104;2022-09-01T07:05:11;15.95;60.15
70695;DHT22;58269;52.246;21.104;2022-09-01T07:07:14;15.99;60.25
70695;DHT22;58269;52.246;21.104;2022-09-01T07:09:33;16.08;60.25
70695;DHT22;58269;52.246;21.104;2022-09-01T07:11:51;16.20;60.34
70695;DHT22;58269;52.246;21.104;2022-09-01T07:13:57;16.41;60.96
70695;DHT22;58269;52.246;21.104;2022-09-01T07:15:59;16.60;60.51
70695;DHT22;58269;52.246;21.104;2022-09-01T07:18:01;16.74;60.23
70695;DHT22;58269;52.246;21.104;2022-09-01T07:20:02;16.83;60.16
70695;DHT22;58269;52.246;21.104;2022-09-01T07:22:04;16.94;60.22
70695;DHT22;58269;52.246;21.104;2022-09-01T07:24:06;17.08;60.70
70695;DHT22;58269;52.246;21.104;2022-09-01T07:26:08;17.22;60.17
70695;DHT22;58269;52.246;21.104;2022-09-01T07:28:15;17.38;60.09
70695;DHT22;58269;52.246;21.104;2022-09-01T07:30:20;17.45;59.77
70695;DHT22;58269;52.246;21.104;2022-09-01T07:32:22;17.53;59.82
70695;DHT22;58269;52.246;21.104;2022-09-01T07:34:23;17.57;59.85
70695;DHT22;58269;52.246;21.104;2022-09-01T07:36:26;17.63;59.79
70695;DHT22;58269;52.246;21.104;2022-09-01T07:38:27;17.67;59.78
70695;DHT22;58269;52.246;21.104;2022-09-01T07:40:30;17.74;59.88
70695;DHT22;58269;52.246;21.104;2022-09-01T07:42:36;17.88;59.79
70695;DHT22;58269;52.246;21.104;2022-09-01T07:44:59;18.07;59.61
70695;DHT22;58269;52.246;21.104;2022-09-01T07:47:11;18.15;59.24
70695;DHT22;58269;52.246;21.104;2022-09-01T07:49:15;18.21;59.17
70695;DHT22;58269;52.246;21.104;2022-09-01T07:51:17;18.21;59.29
70695;DHT22;58269;52.246;21.104;2022-09-01T07:53:27;18.27;59.19
70695;DHT22;58269;52.246;21.104;2022-09-01T07:55:32;18.31;59.28
70695;DHT22;58269;52.246;21.104;2022-09-01T07:57:34;18.33;59.29
70695;DHT22;58269;52.246;21.104;2022-09-01T07:59:36;18.38;58.97
70695;DHT22;58269;52.246;21.104;2022-09-01T08:01:42;18.45;59.08
70695;DHT22;58269;52.246;21.104;2022-09-01T08:03:44;18.55;58.87
70695;DHT22;58269;52.246;21.104;2022-09-01T08:05:46;18.59;58.78
70695;DHT22;58269;52.246;21.104;2022-09-01T08:07:49;18.66;58.55
70695;DHT22;58269;52.246;21.104;2022-09-01T08:09:51;18.72;58.49
70695;DHT22;58269;52.246;21.104;2022-09-01T08:11:52;18.80;58.47
70695;DHT22;58269;52.246;21.104;2022-09-01T08:13:54;18.90;58.01
70695;DHT22;58269;52.246;21.104;2022-09-01T08:15:57;19.04;58.52
70695;DHT22;58269;52.246;21.104;2022-09-01T08:17:59;19.14;58.36
70695;DHT22;58269;52.246;21.104;2022-09-01T08:20:04;19.27;58.05
70695;DHT22;58269;52.246;21.104;2022-09-01T08:22:23;19.41;57.89
70695;DHT22;58269;52.246;21.104;2022-09-01T08:24:30;19.48;57.84
70695;DHT22;58269;52.246;21.104;2022-09-01T08:26:32;19.50;57.57
70695;DHT22;58269;52.246;21.104;2022-09-01T08:28:34;19.51;57.46
70695;DHT22;58269;52.246;21.104;2022-09-01T08:30:38;19.51;57.35
70695;DHT22;58269;52.246;21.104;2022-09-01T08:32:40;19.50;57.26
70695;DHT22;58269;52.246;21.104;2022-09-01T08:34:44;19.57;57.14
70695;DHT22;58269;52.246;21.104;2022-09-01T08:36:46;19.62;57.07
70695;DHT22;58269;52.246;21.104;2022-09-01T08:38:47;19.61;57.01
70695;DHT22;58269;52.246;21.104;2022-09-01T08:40:51;19.65;56.82
70695;DHT22;58269;52.246;21.104;2022-09-01T08:43:13;19.75;56.62
70695;DHT22;58269;52.246;21.104;2022-09-01T08:45:24;19.85;56.57
70695;DHT22;58269;52.246;21.104;2022-09-01T08:47:25;19.91;56.42
70695;DHT22;58269;52.246;21.104;2022-09-01T08:49:28;19.89;56.24
70695;DHT22;58269;52.246;21.104;2022-09-01T08:51:53;19.92;56.16
70695;DHT22;58269;52.246;21.104;2022-09-01T08:56:18;20.05;55.83
70695;DHT22;58269;52.246;21.104;2022-09-01T08:58:20;20.13;55.62
70695;DHT22;58269;52.246;21.104;2022-09-01T09:00:25;20.24;55.49
70695;DHT22;58269;52.246;21.104;2022-09-01T09:02:33;20.29;55.35
70695;DHT22;58269;52.246;21.104;2022-09-01T09:04:47;20.29;55.17
70695;DHT22;58269;52.246;21.104;2022-09-01T09:07:10;20.24;55.07
70695;DHT22;58269;52.246;21.104;2022-09-01T09:09:12;20.33;54.85
70695;DHT22;58269;52.246;21.104;2022-09-01T09:11:37;20.37;54.81
70695;DHT22;58269;52.246;21.104;2022-09-01T09:16:23;20.51;54.42
70695;DHT22;58269;52.246;21.104;2022-09-01T09:18:43;20.61;54.13
70695;DHT22;58269;52.246;21.104;2022-09-01T09:20:44;20.70;54.04
70695;DHT22;58269;52.246;21.104;2022-09-01T09:22:46;20.78;53.95
70695;DHT22;58269;52.246;21.104;2022-09-01T09:24:54;20.85;53.80
70695;DHT22;58269;52.246;21.104;2022-09-01T09:26:57;20.91;53.65
70695;DHT22;58269;52.246;21.104;2022-09-01T09:28:58;20.94;53.57
70695;DHT22;58269;52.246;21.104;2022-09-01T09:33:38;21.01;53.31
70695;DHT22;58269;52.246;21.104;2022-09-01T09:35:44;21.02;53.19
70695;DHT22;58269;52.246;21.104;2022-09-01T09:37:46;21.05;53.08
70695;DHT22;58269;52.246;21.104;2022-09-01T09:40:14;21.04;53.08
70695;DHT22;58269;52.246;21.104;2022-09-01T09:42:16;21.04;53.00
70695;DHT22;58269;52.246;21.104;2022-09-01T09:44:25;21.06;52.87
70695;DHT22;58269;52.246;21.104;2022-09-01T09:48:34;21.08;52.71
70695;DHT22;58269;52.246;21.104;2022-09-01T09:50:39;21.06;52.61
70695;DHT22;58269;52.246;21.104;2022-09-01T09:52:40;21.12;52.40
70695;DHT22;58269;52.246;21.104;2022-09-01T09:55:03;21.18;52.34
70695;DHT22;58269;52.246;21.104;2022-09-01T10:03:38;21.34;51.97
70695;DHT22;58269;52.246;21.104;2022-09-01T10:05:42;21.35;51.78
70695;DHT22;58269;52.246;21.104;2022-09-01T10:07:43;21.35;51.60
70695;DHT22;58269;52.246;21.104;2022-09-01T10:09:45;21.41;51.56
70695;DHT22;58269;52.246;21.104;2022-09-01T10:11:51;21.45;51.24
70695;DHT22;58269;52.246;21.104;2022-09-01T10:13:54;21.48;51.24
70695;DHT22;58269;52.246;21.104;2022-09-01T10:16:00;21.45;50.90
70695;DHT22;58269;52.246;21.104;2022-09-01T10:18:08;21.45;50.70
70695;DHT22;58269;52.246;21.104;2022-09-01T10:20:20;21.46;50.78
70695;DHT22;58269;52.246;21.104;2022-09-01T10:22:21;21.45;50.56
70695;DHT22;58269;52.246;21.104;2022-09-01T10:24:31;21.49;50.29
70695;DHT22;58269;52.246;21.104;2022-09-01T10:26:37;21.53;50.04
70695;DHT22;58269;52.246;21.104;2022-09-01T10:30:59;21.56;49.31
70695;DHT22;58269;52.246;21.104;2022-09-01T10:33:03;21.62;49.28
70695;DHT22;58269;52.246;21.104;2022-09-01T10:35:11;21.65;49.06
70695;DHT22;58269;52.246;21.104;2022-09-01T10:37:08;21.65;49.10
70695;DHT22;58269;52.246;21.104;2022-09-01T10:39:11;21.73;48.32
70695;DHT22;58269;52.246;21.104;2022-09-01T10:42:16;21.77;48.51
70695;DHT22;58269;52.246;21.104;2022-09-01T10:45:42;21.86;47.82
70695;DHT22;58269;52.246;21.104;2022-09-01T10:47:44;21.86;48.15
70695;DHT22;58269;52.246;21.104;2022-09-01T10:51:50;21.86;48.03
70695;DHT22;58269;52.246;21.104;2022-09-01T10:53:54;21.86;47.65
70695;DHT22;58269;52.246;21.104;2022-09-01T10:56:21;21.89;47.68
70695;DHT22;58269;52.246;21.104;2022-09-01T10:58:42;21.93;47.92
70695;DHT22;58269;52.246;21.104;2022-09-01T11:00:44;21.97;47.67
70695;DHT22;58269;52.246;21.104;2022-09-01T11:03:31;22.00;47.79
70695;DHT22;58269;52.246;21.104;2022-09-01T11:07:03;22.08;47.80
70695;DHT22;58269;52.246;21.104;2022-09-01T11:09:20;22.13;47.96
70695;DHT22;58269;52.246;21.104;2022-09-01T11:11:32;22.31;47.96
70695;DHT22;58269;52.246;21.104;2022-09-01T11:13:54;22.58;47.96
70695;DHT22;58269;52.246;21.104;2022-09-01T11:15:55;23.07;48.05
70695;DHT22;58269;52.246;21.104;2022-09-01T11:17:56;23.53;47.55
70695;DHT22;58269;52.246;21.104;2022-09-01T11:20:21;23.92;47.23
70695;DHT22;58269;52.246;21.104;2022-09-01T11:26:47;24.38;45.75
70695;DHT22;58269;52.246;21.104;2022-09-01T11:28:48;24.49;45.06
70695;DHT22;58269;52.246;21.104;2022-09-01T11:30:55;24.58;45.12
70695;DHT22;58269;52.246;21.104;2022-09-01T11:35:21;24.39;44.60
70695;DHT22;58269;52.246;21.104;2022-09-01T11:37:23;24.22;45.03
70695;DHT22;58269;52.246;21.104;2022-09-01T11:39:31;24.01;44.58
70695;DHT22;58269;52.246;21.104;2022-09-01T11:41:54;23.81;44.35
70695;DHT22;58269;52.246;21.104;2022-09-01T11:43:55;23.60;44.51
70695;DHT22;58269;52.246;21.104;2022-09-01T11:46:13;23.49;44.63
70695;DHT22;58269;52.246;21.104;2022-09-01T11:48:15;23.34;44.65
70695;DHT22;58269;52.246;21.104;2022-09-01T11:52:31;23.10;44.45
70695;DHT22;58269;52.246;21.104;2022-09-01T11:54:39;22.98;44.50
70695;DHT22;58269;52.246;21.104;2022-09-01T11:56:40;22.88;44.67
70695;DHT22;58269;52.246;21.104;2022-09-01T11:58:41;22.79;44.56
70695;DHT22;58269;52.246;21.104;2022-09-01T12:00:43;22.76;44.60
70695;DHT22;58269;52.246;21.104;2022-09-01T12:02:49;22.76;44.61
70695;DHT22;58269;52.246;21.104;2022-09-01T12:04:52;22.72;44.65
70695;DHT22;58269;52.246;21.104;2022-09-01T12:06:58;22.75;44.67
70695;DHT22;58269;52.246;21.104;2022-09-01T12:09:02;22.83;44.61
70695;DHT22;58269;52.246;21.104;2022-09-01T12:11:25;22.93;44.32
70695;DHT22;58269;52.246;21.104;2022-09-01T12:13:29;23.00;44.16
70695;DHT22;58269;52.246;21.104;2022-09-01T12:15:30;22.96;44.15
70695;DHT22;58269;52.246;21.104;2022-09-01T12:17:32;22.90;43.92
70695;DHT22;58269;52.246;21.104;2022-09-01T12:19:34;22.90;43.99
70695;DHT22;58269;52.246;21.104;2022-09-01T12:21:40;22.95;44.10
70695;DHT22;58269;52.246;21.104;2022-09-01T12:23:44;23.07;43.99
70695;DHT22;58269;52.246;21.104;2022-09-01T12:25:45;23.17;44.07
70695;DHT22;58269;52.246;21.104;2022-09-01T12:27:46;23.23;44.03
70695;DHT22;58269;52.246;21.104;2022-09-01T12:29:48;23.34;44.10
70695;DHT22;58269;52.246;21.104;2022-09-01T12:31:50;23.41;44.12
70695;DHT22;58269;52.246;21.104;2022-09-01T12:33:54;23.43;44.15
70695;DHT22;58269;52.246;21.104;2022-09-01T12:40:25;23.20;43.89
70695;DHT22;58269;52.246;21.104;2022-09-01T12:42:31;23.10;44.06
70695;DHT22;58269;52.246;21.104;2022-09-01T12:46:43;22.90;43.94
70695;DHT22;58269;52.246;21.104;2022-09-01T12:48:44;22.83;44.04
70695;DHT22;58269;52.246;21.104;2022-09-01T12:50:46;22.76;44.14
70695;DHT22;58269;52.246;21.104;2022-09-01T12:52:50;22.74;44.27
70695;DHT22;58269;52.246;21.104;2022-09-01T12:57:04;22.72;44.34
70695;DHT22;58269;52.246;21.104;2022-09-01T12:59:13;22.79;44.38
70695;DHT22;58269;52.246;21.104;2022-09-01T13:01:27;22.96;44.45
70695;DHT22;58269;52.246;21.104;2022-09-01T13:03:28;23.20;44.59
70695;DHT22;58269;52.246;21.104;2022-09-01T13:05:34;23.40;44.58
70695;DHT22;58269;52.246;21.104;2022-09-01T13:07:35;23.50;44.37
70695;DHT22;58269;52.246;21.104;2022-09-01T13:09:36;23.62;44.17
70695;DHT22;58269;52.246;21.104;2022-09-01T13:11:38;23.78;43.66
70695;DHT22;58269;52.246;21.104;2022-09-01T13:13:39;23.87;43.31
70695;DHT22;58269;52.246;21.104;2022-09-01T13:15:49;23.85;43.11
70695;DHT22;58269;52.246;21.104;2022-09-01T13:17:47;23.87;43.27
70695;DHT22;58269;52.246;21.104;2022-09-01T13:19:48;23.83;43.20
70695;DHT22;58269;52.246;21.104;2022-09-01T13:21:49;23.83;43.21
70695;DHT22;58269;52.246;21.104;2022-09-01T13:23:50;23.85;42.79
70695;DHT22;58269;52.246;21.104;2022-09-01T13:25:52;23.88;42.60
70695;DHT22;58269;52.246;21.104;2022-09-01T13:27:53;23.88;42.74
70695;DHT22;58269;52.246;21.104;2022-09-01T13:29:54;23.91;42.65
70695;DHT22;58269;52.246;21.104;2022-09-01T13:31:56;23.87;42.47
70695;DHT22;58269;52.246;21.104;2022-09-01T13:33:58;23.81;42.59
70695;DHT22;58269;52.246;21.104;2022-09-01T13:36:00;23.74;42.56
70695;DHT22;58269;52.246;21.104;2022-09-01T13:38:02;23.70;42.42